sensor_id;sensor_type;location;lat;lon;timestamp;P1;durP1;ratioP1;P2;durP2;ratioP2
32445;SDS011;18899;50.748;7.102;2024-01-30T00:02:24;18.25;;;9.60;;
32445;SDS011;18899;50.748;7.102;2024-01-30T00:04:50;16.58;;;8.95;;
32445;SDS011;18899;50.748;7.102;2024-01-30T00:07:16;21.45;;;8.82;;
32445;SDS011;18899;50.748;7.102;2024-01-30T00:09:41;21.20;;;9.05;;
32445;SDS011;18899;50.748;7.102;2024-01-30T00:12:07;19.75;;;9.38;;
32445;SDS011;18899;50.748;7.102;2024-01-30T00:14:32;17.67;;;9.43;;
32445;SDS011;18899;50.748;7.102;2024-01-30T00:16:58;20.30;;;9.70;;
32445;SDS011;18899;50.748;7.102;2024-01-30T00:19:23;20.08;;;9.20;;
32445;SDS011;18899;50.748;7.102;2024-01-30T00:21:49;17.75;;;9.73;;
32445;SDS011;18899;50.748;7.102;2024-01-30T00:24:14;16.80;;;9.25;;
32445;SDS011;18899;50.748;7.102;2024-01-30T00:26:40;19.63;;;9.27;;
32445;SDS011;18899;50.748;7.102;2024-01-30T00:29:06;22.58;;;8.75;;
32445;SDS011;18899;50.748;7.102;2024-01-30T00:31:31;22.13;;;8.88;;
32445;SDS011;18899;50.748;7.102;2024-01-30T00:33:57;26.08;;;9.18;;
32445;SDS011;18899;50.748;7.102;2024-01-30T00:36:22;13.73;;;8.35;;
32445;SDS011;18899;50.748;7.102;2024-01-30T00:38:48;15.35;;;8.15;;
32445;SDS011;18899;50.748;7.102;2024-01-30T00:41:13;16.27;;;8.05;;
32445;SDS011;18899;50.748;7.102;2024-01-30T00:43:39;15.45;;;7.70;;
32445;SDS011;18899;50.748;7.102;2024-01-30T00:46:05;16.85;;;8.73;;
32445;SDS011;18899;50.748;7.102;2024-01-30T00:48:30;17.33;;;9.02;;
32445;SDS011;18899;50.748;7.102;2024-01-30T00:50:56;17.08;;;9.15;;
32445;SDS011;18899;50.748;7.102;2024-01-30T00:53:21;18.65;;;8.32;;
32445;SDS011;18899;50.748;7.102;2024-01-30T00:55:47;13.88;;;7.97;;
32445;SDS011;18899;50.748;7.102;2024-01-30T00:58:12;19.25;;;8.85;;
32445;SDS011;18899;50.748;7.102;2024-01-30T01:00:38;21.50;;;8.13;;
32445;SDS011;18899;50.748;7.102;2024-01-30T01:03:04;14.52;;;8.00;;
32445;SDS011;18899;50.748;7.102;2024-01-30T01:05:29;17.58;;;8.30;;
32445;SDS011;18899;50.748;7.102;2024-01-30T01:07:55;17.27;;;7.50;;
32445;SDS011;18899;50.748;7.102;2024-01-30T01:10:20;14.77;;;8.07;;
32445;SDS011;18899;50.748;7.102;2024-01-30T01:12:46;13.40;;;7.38;;
32445;SDS011;18899;50.748;7.102;2024-01-30T01:15:12;21.63;;;9.30;;
32445;SDS011;18899;50.748;7.102;2024-01-30T01:17:38;14.60;;;8.00;;
32445;SDS011;18899;50.748;7.102;2024-01-30T01:20:05;17.13;;;8.10;;
32445;SDS011;18899;50.748;7.102;2024-01-30T01:22:31;19.40;;;7.95;;
32445;SDS011;18899;50.748;7.102;2024-01-30T01:24:57;13.63;;;8.15;;
32445;SDS011;18899;50.748;7.102;2024-01-30T01:27:23;22.88;;;8.68;;
32445;SDS011;18899;50.748;7.102;2024-01-30T01:29:49;21.80;;;8.63;;
32445;SDS011;18899;50.748;7.102;2024-01-30T01:32:15;15.27;;;8.20;;
32445;SDS011;18899;50.748;7.102;2024-01-30T01:34:41;16.95;;;8.10;;
32445;SDS011;18899;50.748;7.102;2024-01-30T01:37:06;18.10;;;8.57;;
32445;SDS011;18899;50.748;7.102;2024-01-30T01:39:32;20.30;;;7.32;;
32445;SDS011;18899;50.748;7.102;2024-01-30T01:41:58;17.25;;;7.63;;
32445;SDS011;18899;50.748;7.102;2024-01-30T01:44:23;13.65;;;7.78;;
32445;SDS011;18899;50.748;7.102;2024-01-30T01:46:49;13.00;;;7.43;;
32445;SDS011;18899;50.748;7.102;2024-01-30T01:49:16;17.08;;;7.75;;
32445;SDS011;18899;50.748;7.102;2024-01-30T01:51:42;15.52;;;7.60;;
32445;SDS011;18899;50.748;7.102;2024-01-30T01:54:09;18.42;;;7.60;;
32445;SDS011;18899;50.748;7.102;2024-01-30T01:56:36;14.77;;;6.88;;
32445;SDS011;18899;50.748;7.102;2024-01-30T01:59:06;15.60;;;7.32;;
32445;SDS011;18899;50.748;7.102;2024-01-30T02:01:33;13.65;;;7.13;;
32445;SDS011;18899;50.748;7.102;2024-01-30T02:04:01;16.23;;;7.10;;
32445;SDS011;18899;50.748;7.102;2024-01-30T02:06:27;15.48;;;7.05;;
32445;SDS011;18899;50.748;7.102;2024-01-30T02:08:53;15.90;;;7.35;;
32445;SDS011;18899;50.748;7.102;2024-01-30T02:11:19;26.52;;;8.98;;
32445;SDS011;18899;50.748;7.102;2024-01-30T02:13:45;13.02;;;6.80;;
32445;SDS011;18899;50.748;7.102;2024-01-30T02:16:11;17.25;;;7.80;;
32445;SDS011;18899;50.748;7.102;2024-01-30T02:18:36;15.52;;;7.57;;
32445;SDS011;18899;50.748;7.102;2024-01-30T02:21:07;15.45;;;7.82;;
32445;SDS011;18899;50.748;7.102;2024-01-30T02:23:32;16.65;;;7.93;;
32445;SDS011;18899;50.748;7.102;2024-01-30T02:25:59;16.55;;;7.35;;
32445;SDS011;18899;50.748;7.102;2024-01-30T02:28:25;14.80;;;7.43;;
32445;SDS011;18899;50.748;7.102;2024-01-30T02:30:51;15.63;;;6.85;;
32445;SDS011;18899;50.748;7.102;2024-01-30T02:33:16;14.75;;;7.43;;
32445;SDS011;18899;50.748;7.102;2024-01-30T02:35:42;18.30;;;7.90;;
32445;SDS011;18899;50.748;7.102;2024-01-30T02:38:07;18.58;;;7.88;;
32445;SDS011;18899;50.748;7.102;2024-01-30T02:40:33;15.63;;;7.35;;
32445;SDS011;18899;50.748;7.102;2024-01-30T02:42:59;18.80;;;7.60;;
32445;SDS011;18899;50.748;7.102;2024-01-30T02:45:26;15.63;;;7.15;;
32445;SDS011;18899;50.748;7.102;2024-01-30T02:47:52;17.70;;;8.52;;
32445;SDS011;18899;50.748;7.102;2024-01-30T02:50:17;14.73;;;7.22;;
32445;SDS011;18899;50.748;7.102;2024-01-30T02:52:43;18.77;;;7.63;;
32445;SDS011;18899;50.748;7.102;2024-01-30T02:55:11;14.75;;;8.13;;
32445;SDS011;18899;50.748;7.102;2024-01-30T02:57:40;15.93;;;7.80;;
32445;SDS011;18899;50.748;7.102;2024-01-30T03:00:06;17.10;;;8.30;;
32445;SDS011;18899;50.748;7.102;2024-01-30T03:02:34;13.85;;;6.88;;
32445;SDS011;18899;50.748;7.102;2024-01-30T03:05:00;19.42;;;8.32;;
32445;SDS011;18899;50.748;7.102;2024-01-30T03:07:26;13.73;;;7.15;;
32445;SDS011;18899;50.748;7.102;2024-01-30T03:09:51;21.23;;;7.93;;
32445;SDS011;18899;50.748;7.102;2024-01-30T03:12:17;21.60;;;8.18;;
32445;SDS011;18899;50.748;7.102;2024-01-30T03:14:43;15.35;;;7.85;;
32445;SDS011;18899;50.748;7.102;2024-01-30T03:17:08;18.70;;;7.65;;
32445;SDS011;18899;50.748;7.102;2024-01-30T03:19:34;14.63;;;7.85;;
32445;SDS011;18899;50.748;7.102;2024-01-30T03:21:59;13.63;;;8.25;;
32445;SDS011;18899;50.748;7.102;2024-01-30T03:24:25;16.17;;;7.53;;
32445;SDS011;18899;50.748;7.102;2024-01-30T03:26:51;11.90;;;6.82;;
32445;SDS011;18899;50.748;7.102;2024-01-30T03:29:16;14.00;;;7.20;;
32445;SDS011;18899;50.748;7.102;2024-01-30T03:31:42;19.00;;;7.72;;
32445;SDS011;18899;50.748;7.102;2024-01-30T03:34:07;24.65;;;8.38;;
32445;SDS011;18899;50.748;7.102;2024-01-30T03:36:33;14.32;;;7.60;;
32445;SDS011;18899;50.748;7.102;2024-01-30T03:38:59;17.25;;;7.93;;
32445;SDS011;18899;50.748;7.102;2024-01-30T03:41:25;17.73;;;7.95;;
32445;SDS011;18899;50.748;7.102;2024-01-30T03:43:50;15.30;;;7.68;;
32445;SDS011;18899;50.748;7.102;2024-01-30T03:46:16;15.38;;;7.10;;
32445;SDS011;18899;50.748;7.102;2024-01-30T03:48:42;13.90;;;7.05;;
32445;SDS011;18899;50.748;7.102;2024-01-30T03:51:07;17.27;;;7.45;;
32445;SDS011;18899;50.748;7.102;2024-01-30T03:53:34;14.63;;;6.65;;
32445;SDS011;18899;50.748;7.102;2024-01-30T03:56:00;11.48;;;6.47;;
32445;SDS011;18899;50.748;7.102;2024-01-30T03:58:25;18.05;;;7.55;;
32445;SDS011;18899;50.748;7.102;2024-01-30T04:00:51;16.13;;;6.78;;
32445;SDS011;18899;50.748;7.102;2024-01-30T04:03:17;13.85;;;6.95;;
32445;SDS011;18899;50.748;7.102;2024-01-30T04:05:42;19.17;;;6.93;;
32445;SDS011;18899;50.748;7.102;2024-01-30T04:08:08;16.67;;;7.03;;
32445;SDS011;18899;50.748;7.102;2024-01-30T04:10:34;12.65;;;7.07;;
32445;SDS011;18899;50.748;7.102;2024-01-30T04:13:00;13.23;;;5.82;;
32445;SDS011;18899;50.748;7.102;2024-01-30T04:15:26;15.40;;;6.95;;
32445;SDS011;18899;50.748;7.102;2024-01-30T04:17:51;15.23;;;6.65;;
32445;SDS011;18899;50.748;7.102;2024-01-30T04:20:17;13.25;;;6.38;;
32445;SDS011;18899;50.748;7.102;2024-01-30T04:22:43;16.77;;;6.82;;
32445;SDS011;18899;50.748;7.102;2024-01-30T04:25:09;12.98;;;6.20;;
32445;SDS011;18899;50.748;7.102;2024-01-30T04:27:35;18.95;;;7.38;;
32445;SDS011;18899;50.748;7.102;2024-01-30T04:30:01;13.40;;;6.95;;
32445;SDS011;18899;50.748;7.102;2024-01-30T04:32:26;13.88;;;6.75;;
32445;SDS011;18899;50.748;7.102;2024-01-30T04:34:52;13.45;;;6.95;;
32445;SDS011;18899;50.748;7.102;2024-01-30T04:37:17;13.55;;;6.78;;
32445;SDS011;18899;50.748;7.102;2024-01-30T04:39:43;13.73;;;6.72;;
32445;SDS011;18899;50.748;7.102;2024-01-30T04:42:08;14.25;;;7.00;;
32445;SDS011;18899;50.748;7.102;2024-01-30T04:44:34;14.52;;;6.57;;
32445;SDS011;18899;50.748;7.102;2024-01-30T04:46:59;13.27;;;7.38;;
32445;SDS011;18899;50.748;7.102;2024-01-30T04:49:26;13.50;;;6.88;;
32445;SDS011;18899;50.748;7.102;2024-01-30T04:51:52;13.27;;;7.15;;
32445;SDS011;18899;50.748;7.102;2024-01-30T04:54:18;18.52;;;8.45;;
32445;SDS011;18899;50.748;7.102;2024-01-30T04:56:43;16.27;;;6.88;;
32445;SDS011;18899;50.748;7.102;2024-01-30T04:59:09;17.85;;;7.18;;
32445;SDS011;18899;50.748;7.102;2024-01-30T05:01:34;16.70;;;7.05;;
32445;SDS011;18899;50.748;7.102;2024-01-30T05:04:00;14.05;;;6.82;;
32445;SDS011;18899;50.748;7.102;2024-01-30T05:06:26;17.27;;;7.57;;
32445;SDS011;18899;50.748;7.102;2024-01-30T05:08:52;14.10;;;7.25;;
32445;SDS011;18899;50.748;7.102;2024-01-30T05:11:18;13.77;;;7.95;;
32445;SDS011;18899;50.748;7.102;2024-01-30T05:13:43;16.00;;;7.55;;
32445;SDS011;18899;50.748;7.102;2024-01-30T05:16:09;16.55;;;7.07;;
32445;SDS011;18899;50.748;7.102;2024-01-30T05:18:34;14.25;;;7.38;;
32445;SDS011;18899;50.748;7.102;2024-01-30T05:21:00;22.02;;;8.20;;
32445;SDS011;18899;50.748;7.102;2024-01-30T05:23:26;13.00;;;7.10;;
32445;SDS011;18899;50.748;7.102;2024-01-30T05:25:52;20.90;;;7.00;;
32445;SDS011;18899;50.748;7.102;2024-01-30T05:28:18;13.02;;;7.00;;
32445;SDS011;18899;50.748;7.102;2024-01-30T05:30:43;16.67;;;6.57;;
32445;SDS011;18899;50.748;7.102;2024-01-30T05:33:09;17.55;;;8.18;;
32445;SDS011;18899;50.748;7.102;2024-01-30T05:35:34;16.80;;;6.88;;
32445;SDS011;18899;50.748;7.102;2024-01-30T05:38:00;15.02;;;7.32;;
32445;SDS011;18899;50.748;7.102;2024-01-30T05:40:25;15.45;;;6.65;;
32445;SDS011;18899;50.748;7.102;2024-01-30T05:42:52;20.70;;;8.40;;
32445;SDS011;18899;50.748;7.102;2024-01-30T05:45:17;15.43;;;7.15;;
32445;SDS011;18899;50.748;7.102;2024-01-30T05:47:43;14.18;;;7.93;;
32445;SDS011;18899;50.748;7.102;2024-01-30T05:50:08;14.68;;;7.28;;
32445;SDS011;18899;50.748;7.102;2024-01-30T05:52:34;18.67;;;7.78;;
32445;SDS011;18899;50.748;7.102;2024-01-30T05:55:00;17.00;;;7.80;;
32445;SDS011;18899;50.748;7.102;2024-01-30T05:57:25;15.60;;;8.65;;
32445;SDS011;18899;50.748;7.102;2024-01-30T05:59:51;15.35;;;8.00;;
32445;SDS011;18899;50.748;7.102;2024-01-30T06:02:17;16.00;;;7.65;;
32445;SDS011;18899;50.748;7.102;2024-01-30T06:04:42;16.92;;;7.47;;
32445;SDS011;18899;50.748;7.102;2024-01-30T06:07:09;14.77;;;7.95;;
32445;SDS011;18899;50.748;7.102;2024-01-30T06:09:35;17.70;;;7.85;;
32445;SDS011;18899;50.748;7.102;2024-01-30T06:12:00;13.23;;;7.93;;
32445;SDS011;18899;50.748;7.102;2024-01-30T06:14:26;15.65;;;7.97;;
32445;SDS011;18899;50.748;7.102;2024-01-30T06:16:51;17.30;;;8.30;;
32445;SDS011;18899;50.748;7.102;2024-01-30T06:19:17;15.82;;;8.68;;
32445;SDS011;18899;50.748;7.102;2024-01-30T06:21:42;16.55;;;8.05;;
32445;SDS011;18899;50.748;7.102;2024-01-30T06:24:08;16.83;;;8.10;;
32445;SDS011;18899;50.748;7.102;2024-01-30T06:26:34;15.75;;;8.07;;
32445;SDS011;18899;50.748;7.102;2024-01-30T06:28:59;17.23;;;8.05;;
32445;SDS011;18899;50.748;7.102;2024-01-30T06:31:25;17.13;;;7.70;;
32445;SDS011;18899;50.748;7.102;2024-01-30T06:33:50;15.02;;;8.02;;
32445;SDS011;18899;50.748;7.102;2024-01-30T06:36:16;20.80;;;8.25;;
32445;SDS011;18899;50.748;7.102;2024-01-30T06:38:41;14.93;;;7.03;;
32445;SDS011;18899;50.748;7.102;2024-01-30T06:41:07;16.08;;;8.10;;
32445;SDS011;18899;50.748;7.102;2024-01-30T06:43:33;16.70;;;8.15;;
32445;SDS011;18899;50.748;7.102;2024-01-30T06:45:59;17.42;;;8.43;;
32445;SDS011;18899;50.748;7.102;2024-01-30T06:48:24;16.17;;;7.90;;
32445;SDS011;18899;50.748;7.102;2024-01-30T06:50:52;13.90;;;7.45;;
32445;SDS011;18899;50.748;7.102;2024-01-30T06:53:18;16.92;;;7.90;;
32445;SDS011;18899;50.748;7.102;2024-01-30T06:55:44;16.42;;;7.90;;
32445;SDS011;18899;50.748;7.102;2024-01-30T06:58:10;17.67;;;8.15;;
32445;SDS011;18899;50.748;7.102;2024-01-30T07:00:35;17.33;;;8.55;;
32445;SDS011;18899;50.748;7.102;2024-01-30T07:03:01;17.00;;;7.70;;
32445;SDS011;18899;50.748;7.102;2024-01-30T07:05:26;17.40;;;7.75;;
32445;SDS011;18899;50.748;7.102;2024-01-30T07:07:52;16.00;;;8.02;;
32445;SDS011;18899;50.748;7.102;2024-01-30T07:10:18;15.40;;;7.22;;
32445;SDS011;18899;50.748;7.102;2024-01-30T07:12:44;14.60;;;7.53;;
32445;SDS011;18899;50.748;7.102;2024-01-30T07:15:09;16.35;;;8.27;;
32445;SDS011;18899;50.748;7.102;2024-01-30T07:17:35;16.27;;;7.18;;
32445;SDS011;18899;50.748;7.102;2024-01-30T07:20:01;16.35;;;8.13;;
32445;SDS011;18899;50.748;7.102;2024-01-30T07:22:28;15.35;;;7.90;;
32445;SDS011;18899;50.748;7.102;2024-01-30T07:24:55;15.35;;;7.18;;
32445;SDS011;18899;50.748;7.102;2024-01-30T07:27:20;20.20;;;8.73;;
32445;SDS011;18899;50.748;7.102;2024-01-30T07:29:46;20.10;;;8.05;;
32445;SDS011;18899;50.748;7.102;2024-01-30T07:32:12;18.52;;;8.18;;
32445;SDS011;18899;50.748;7.102;2024-01-30T07:34:37;23.92;;;9.25;;
32445;SDS011;18899;50.748;7.102;2024-01-30T07:37:03;17.67;;;7.95;;
32445;SDS011;18899;50.748;7.102;2024-01-30T07:39:28;16.42;;;8.30;;
32445;SDS011;18899;50.748;7.102;2024-01-30T07:41:54;20.33;;;9.18;;
32445;SDS011;18899;50.748;7.102;2024-01-30T07:44:20;17.45;;;8.38;;
32445;SDS011;18899;50.748;7.102;2024-01-30T07:46:45;15.35;;;8.82;;
32445;SDS011;18899;50.748;7.102;2024-01-30T07:49:11;18.67;;;8.70;;
32445;SDS011;18899;50.748;7.102;2024-01-30T07:51:39;19.02;;;8.55;;
32445;SDS011;18899;50.748;7.102;2024-01-30T07:54:04;19.27;;;8.52;;
32445;SDS011;18899;50.748;7.102;2024-01-30T07:56:30;20.05;;;8.45;;
32445;SDS011;18899;50.748;7.102;2024-01-30T07:58:55;17.17;;;8.18;;
32445;SDS011;18899;50.748;7.102;2024-01-30T08:01:21;20.05;;;9.23;;
32445;SDS011;18899;50.748;7.102;2024-01-30T08:03:46;18.10;;;9.02;;
32445;SDS011;18899;50.748;7.102;2024-01-30T08:06:12;17.25;;;9.32;;
32445;SDS011;18899;50.748;7.102;2024-01-30T08:08:38;18.02;;;8.57;;
32445;SDS011;18899;50.748;7.102;2024-01-30T08:11:03;16.42;;;8.10;;
32445;SDS011;18899;50.748;7.102;2024-01-30T08:13:29;14.18;;;8.40;;
32445;SDS011;18899;50.748;7.102;2024-01-30T08:15:54;15.68;;;7.85;;
32445;SDS011;18899;50.748;7.102;2024-01-30T08:18:20;17.80;;;7.57;;
32445;SDS011;18899;50.748;7.102;2024-01-30T08:20:45;19.20;;;8.65;;
32445;SDS011;18899;50.748;7.102;2024-01-30T08:23:11;16.77;;;8.30;;
32445;SDS011;18899;50.748;7.102;2024-01-30T08:25:37;14.95;;;8.18;;
32445;SDS011;18899;50.748;7.102;2024-01-30T08:28:03;19.60;;;8.52;;
32445;SDS011;18899;50.748;7.102;2024-01-30T08:30:29;20.05;;;8.75;;
32445;SDS011;18899;50.748;7.102;2024-01-30T08:32:54;17.88;;;8.75;;
32445;SDS011;18899;50.748;7.102;2024-01-30T08:35:20;14.85;;;8.32;;
32445;SDS011;18899;50.748;7.102;2024-01-30T08:37:45;17.75;;;7.70;;
32445;SDS011;18899;50.748;7.102;2024-01-30T08:40:11;12.60;;;7.68;;
32445;SDS011;18899;50.748;7.102;2024-01-30T08:42:36;19.95;;;8.10;;
32445;SDS011;18899;50.748;7.102;2024-01-30T08:45:02;12.68;;;7.45;;
32445;SDS011;18899;50.748;7.102;2024-01-30T08:47:29;20.35;;;7.65;;
32445;SDS011;18899;50.748;7.102;2024-01-30T08:49:55;15.40;;;7.10;;
32445;SDS011;18899;50.748;7.102;2024-01-30T08:52:20;15.60;;;7.25;;
32445;SDS011;18899;50.748;7.102;2024-01-30T08:54:46;14.02;;;6.55;;
32445;SDS011;18899;50.748;7.102;2024-01-30T08:57:11;12.93;;;7.55;;
32445;SDS011;18899;50.748;7.102;2024-01-30T08:59:37;16.30;;;6.88;;
32445;SDS011;18899;50.748;7.102;2024-01-30T09:02:02;13.77;;;6.88;;
32445;SDS011;18899;50.748;7.102;2024-01-30T09:04:29;16.13;;;7.35;;
32445;SDS011;18899;50.748;7.102;2024-01-30T09:06:54;13.50;;;6.40;;
32445;SDS011;18899;50.748;7.102;2024-01-30T09:09:20;15.40;;;7.00;;
32445;SDS011;18899;50.748;7.102;2024-01-30T09:11:45;12.55;;;6.55;;
32445;SDS011;18899;50.748;7.102;2024-01-30T09:14:11;18.33;;;6.93;;
32445;SDS011;18899;50.748;7.102;2024-01-30T09:16:37;15.35;;;6.35;;
32445;SDS011;18899;50.748;7.102;2024-01-30T09:19:02;18.17;;;6.78;;
32445;SDS011;18899;50.748;7.102;2024-01-30T09:21:28;16.10;;;6.40;;
32445;SDS011;18899;50.748;7.102;2024-01-30T09:24:01;11.10;;;6.40;;
32445;SDS011;18899;50.748;7.102;2024-01-30T09:26:29;14.63;;;7.07;;
32445;SDS011;18899;50.748;7.102;2024-01-30T09:28:54;15.63;;;6.53;;
32445;SDS011;18899;50.748;7.102;2024-01-30T09:31:20;15.93;;;6.97;;
32445;SDS011;18899;50.748;7.102;2024-01-30T09:33:45;11.30;;;5.78;;
32445;SDS011;18899;50.748;7.102;2024-01-30T09:36:13;12.85;;;5.97;;
32445;SDS011;18899;50.748;7.102;2024-01-30T09:38:40;13.57;;;6.15;;
32445;SDS011;18899;50.748;7.102;2024-01-30T09:41:06;13.63;;;5.93;;
32445;SDS011;18899;50.748;7.102;2024-01-30T09:43:36;11.63;;;5.72;;
32445;SDS011;18899;50.748;7.102;2024-01-30T09:46:03;12.73;;;6.15;;
32445;SDS011;18899;50.748;7.102;2024-01-30T09:48:30;14.00;;;5.75;;
32445;SDS011;18899;50.748;7.102;2024-01-30T09:50:57;9.90;;;5.03;;
32445;SDS011;18899;50.748;7.102;2024-01-30T09:53:23;12.05;;;5.93;;
32445;SDS011;18899;50.748;7.102;2024-01-30T09:55:50;10.57;;;5.50;;
32445;SDS011;18899;50.748;7.102;2024-01-30T09:58:16;10.18;;;5.43;;
32445;SDS011;18899;50.748;7.102;2024-01-30T10:00:42;12.50;;;5.57;;
32445;SDS011;18899;50.748;7.102;2024-01-30T10:03:07;12.35;;;5.70;;
32445;SDS011;18899;50.748;7.102;2024-01-30T10:05:34;12.27;;;5.45;;
32445;SDS011;18899;50.748;7.102;2024-01-30T10:08:05;11.57;;;5.60;;
32445;SDS011;18899;50.748;7.102;2024-01-30T10:10:33;12.82;;;5.53;;
32445;SDS011;18899;50.748;7.102;2024-01-30T10:12:59;13.25;;;5.90;;
32445;SDS011;18899;50.748;7.102;2024-01-30T10:15:25;10.38;;;5.65;;
32445;SDS011;18899;50.748;7.102;2024-01-30T10:17:52;9.40;;;5.90;;
32445;SDS011;18899;50.748;7.102;2024-01-30T10:20:18;13.90;;;6.15;;
32445;SDS011;18899;50.748;7.102;2024-01-30T10:22:44;13.35;;;6.00;;
32445;SDS011;18899;50.748;7.102;2024-01-30T10:25:10;16.33;;;6.80;;
32445;SDS011;18899;50.748;7.102;2024-01-30T10:27:36;12.57;;;5.82;;
32445;SDS011;18899;50.748;7.102;2024-01-30T10:30:04;11.70;;;6.57;;
32445;SDS011;18899;50.748;7.102;2024-01-30T10:32:30;13.77;;;6.13;;
32445;SDS011;18899;50.748;7.102;2024-01-30T10:34:56;12.90;;;6.22;;
32445;SDS011;18899;50.748;7.102;2024-01-30T10:37:21;14.50;;;6.10;;
32445;SDS011;18899;50.748;7.102;2024-01-30T10:39:50;12.80;;;6.07;;
32445;SDS011;18899;50.748;7.102;2024-01-30T10:42:18;16.52;;;6.43;;
32445;SDS011;18899;50.748;7.102;2024-01-30T10:44:57;16.77;;;6.75;;
32445;SDS011;18899;50.748;7.102;2024-01-30T10:47:30;10.80;;;6.40;;
32445;SDS011;18899;50.748;7.102;2024-01-30T10:49:56;11.82;;;6.82;;
32445;SDS011;18899;50.748;7.102;2024-01-30T10:52:24;14.30;;;7.10;;
32445;SDS011;18899;50.748;7.102;2024-01-30T10:54:51;18.42;;;6.82;;
32445;SDS011;18899;50.748;7.102;2024-01-30T10:57:18;10.45;;;6.60;;
32445;SDS011;18899;50.748;7.102;2024-01-30T10:59:47;15.02;;;6.53;;
32445;SDS011;18899;50.748;7.102;2024-01-30T11:02:14;12.32;;;6.25;;
32445;SDS011;18899;50.748;7.102;2024-01-30T11:04:41;15.45;;;7.25;;
32445;SDS011;18899;50.748;7.102;2024-01-30T11:07:16;14.60;;;5.68;;
32445;SDS011;18899;50.748;7.102;2024-01-30T11:12:40;14.73;;;6.90;;
32445;SDS011;18899;50.748;7.102;2024-01-30T11:15:08;18.35;;;6.65;;
32445;SDS011;18899;50.748;7.102;2024-01-30T11:22:51;13.65;;;6.38;;
32445;SDS011;18899;50.748;7.102;2024-01-30T11:25:18;12.95;;;6.65;;
32445;SDS011;18899;50.748;7.102;2024-01-30T11:27:46;13.52;;;6.22;;
32445;SDS011;18899;50.748;7.102;2024-01-30T11:30:24;19.10;;;6.65;;
32445;SDS011;18899;50.748;7.102;2024-01-30T11:33:00;14.45;;;6.65;;
32445;SDS011;18899;50.748;7.102;2024-01-30T11:35:39;15.25;;;6.80;;
32445;SDS011;18899;50.748;7.102;2024-01-30T11:38:06;16.92;;;6.50;;
32445;SDS011;18899;50.748;7.102;2024-01-30T11:40:33;15.55;;;6.90;;
32445;SDS011;18899;50.748;7.102;2024-01-30T11:43:00;15.75;;;7.10;;
32445;SDS011;18899;50.748;7.102;2024-01-30T11:45:27;14.50;;;6.93;;
32445;SDS011;18899;50.748;7.102;2024-01-30T11:47:53;12.90;;;6.47;;
32445;SDS011;18899;50.748;7.102;2024-01-30T11:50:19;13.27;;;6.47;;
32445;SDS011;18899;50.748;7.102;2024-01-30T11:52:45;13.48;;;6.13;;
32445;SDS011;18899;50.748;7.102;2024-01-30T11:55:10;14.02;;;6.47;;
32445;SDS011;18899;50.748;7.102;2024-01-30T11:57:37;13.52;;;6.57;;
32445;SDS011;18899;50.748;7.102;2024-01-30T12:00:03;18.85;;;6.28;;
32445;SDS011;18899;50.748;7.102;2024-01-30T12:02:34;12.65;;;6.53;;
32445;SDS011;18899;50.748;7.102;2024-01-30T12:05:06;17.52;;;6.15;;
32445;SDS011;18899;50.748;7.102;2024-01-30T12:07:32;13.75;;;6.13;;
32445;SDS011;18899;50.748;7.102;2024-01-30T12:09:58;10.63;;;5.97;;
32445;SDS011;18899;50.748;7.102;2024-01-30T12:12:25;13.38;;;5.68;;
32445;SDS011;18899;50.748;7.102;2024-01-30T12:14:52;11.35;;;5.53;;
32445;SDS011;18899;50.748;7.102;2024-01-30T12:17:30;13.82;;;5.82;;
32445;SDS011;18899;50.748;7.102;2024-01-30T12:20:10;14.18;;;5.88;;
32445;SDS011;18899;50.748;7.102;2024-01-30T12:22:37;10.57;;;5.55;;
32445;SDS011;18899;50.748;7.102;2024-01-30T12:25:05;10.38;;;5.68;;
32445;SDS011;18899;50.748;7.102;2024-01-30T12:27:37;11.63;;;5.93;;
32445;SDS011;18899;50.748;7.102;2024-01-30T12:30:10;10.23;;;5.45;;
32445;SDS011;18899;50.748;7.102;2024-01-30T12:32:40;15.40;;;6.10;;
32445;SDS011;18899;50.748;7.102;2024-01-30T12:35:12;12.38;;;5.20;;
32445;SDS011;18899;50.748;7.102;2024-01-30T12:37:39;15.82;;;6.28;;
32445;SDS011;18899;50.748;7.102;2024-01-30T12:40:05;10.57;;;5.65;;
32445;SDS011;18899;50.748;7.102;2024-01-30T12:42:33;12.95;;;5.55;;
32445;SDS011;18899;50.748;7.102;2024-01-30T12:44:59;11.63;;;5.47;;
32445;SDS011;18899;50.748;7.102;2024-01-30T12:47:24;12.18;;;5.68;;
32445;SDS011;18899;50.748;7.102;2024-01-30T12:49:50;11.95;;;6.15;;
32445;SDS011;18899;50.748;7.102;2024-01-30T12:52:19;13.48;;;6.53;;
32445;SDS011;18899;50.748;7.102;2024-01-30T12:54:46;15.52;;;6.03;;
32445;SDS011;18899;50.748;7.102;2024-01-30T12:57:15;17.58;;;6.57;;
32445;SDS011;18899;50.748;7.102;2024-01-30T12:59:41;13.10;;;6.25;;
32445;SDS011;18899;50.748;7.102;2024-01-30T13:02:08;11.38;;;6.40;;
32445;SDS011;18899;50.748;7.102;2024-01-30T13:04:34;11.98;;;5.90;;
32445;SDS011;18899;50.748;7.102;2024-01-30T13:07:00;10.40;;;5.72;;
32445;SDS011;18899;50.748;7.102;2024-01-30T13:09:27;18.42;;;6.00;;
32445;SDS011;18899;50.748;7.102;2024-01-30T13:11:52;14.25;;;5.07;;
32445;SDS011;18899;50.748;7.102;2024-01-30T13:14:18;13.73;;;5.72;;
32445;SDS011;18899;50.748;7.102;2024-01-30T13:16:44;12.07;;;5.97;;
32445;SDS011;18899;50.748;7.102;2024-01-30T13:19:10;14.35;;;6.38;;
32445;SDS011;18899;50.748;7.102;2024-01-30T13:21:35;13.73;;;7.00;;
32445;SDS011;18899;50.748;7.102;2024-01-30T13:24:01;18.55;;;6.50;;
32445;SDS011;18899;50.748;7.102;2024-01-30T13:26:27;12.52;;;6.45;;
32445;SDS011;18899;50.748;7.102;2024-01-30T13:28:53;15.38;;;6.22;;
32445;SDS011;18899;50.748;7.102;2024-01-30T13:31:18;13.05;;;6.15;;
32445;SDS011;18899;50.748;7.102;2024-01-30T13:33:44;13.95;;;5.88;;
32445;SDS011;18899;50.748;7.102;2024-01-30T13:36:10;13.57;;;6.88;;
32445;SDS011;18899;50.748;7.102;2024-01-30T13:38:36;14.05;;;6.45;;
32445;SDS011;18899;50.748;7.102;2024-01-30T13:41:02;18.00;;;6.25;;
32445;SDS011;18899;50.748;7.102;2024-01-30T13:43:28;12.65;;;6.45;;
32445;SDS011;18899;50.748;7.102;2024-01-30T13:45:54;11.70;;;5.57;;
32445;SDS011;18899;50.748;7.102;2024-01-30T13:48:20;17.48;;;6.45;;
32445;SDS011;18899;50.748;7.102;2024-01-30T13:50:45;12.63;;;6.18;;
32445;SDS011;18899;50.748;7.102;2024-01-30T13:53:11;25.02;;;7.13;;
32445;SDS011;18899;50.748;7.102;2024-01-30T13:55:36;18.92;;;6.47;;
32445;SDS011;18899;50.748;7.102;2024-01-30T13:58:04;20.48;;;6.55;;
32445;SDS011;18899;50.748;7.102;2024-01-30T14:00:30;13.35;;;6.30;;
32445;SDS011;18899;50.748;7.102;2024-01-30T14:02:55;14.52;;;6.60;;
32445;SDS011;18899;50.748;7.102;2024-01-30T14:05:22;14.93;;;6.70;;
32445;SDS011;18899;50.748;7.102;2024-01-30T14:07:48;19.88;;;7.05;;
32445;SDS011;18899;50.748;7.102;2024-01-30T14:10:14;15.70;;;6.75;;
32445;SDS011;18899;50.748;7.102;2024-01-30T14:12:41;15.82;;;6.03;;
32445;SDS011;18899;50.748;7.102;2024-01-30T14:15:07;11.60;;;6.15;;
32445;SDS011;18899;50.748;7.102;2024-01-30T14:17:34;16.95;;;6.47;;
32445;SDS011;18899;50.748;7.102;2024-01-30T14:20:01;21.83;;;6.72;;
32445;SDS011;18899;50.748;7.102;2024-01-30T14:22:28;14.45;;;6.25;;
32445;SDS011;18899;50.748;7.102;2024-01-30T14:24:53;13.82;;;6.35;;
32445;SDS011;18899;50.748;7.102;2024-01-30T14:27:19;17.23;;;6.60;;
32445;SDS011;18899;50.748;7.102;2024-01-30T14:29:44;12.25;;;6.38;;
32445;SDS011;18899;50.748;7.102;2024-01-30T14:32:10;16.55;;;6.40;;
32445;SDS011;18899;50.748;7.102;2024-01-30T14:34:35;13.65;;;6.20;;
32445;SDS011;18899;50.748;7.102;2024-01-30T14:37:01;12.93;;;6.13;;
32445;SDS011;18899;50.748;7.102;2024-01-30T14:39:26;15.50;;;6.05;;